Etusivu
METAR-TAF:

METAR-TAF

Lentoasemat :

Cape Romanzof, Alaska, Yhdysvallat

Leveyspiiri: 61-47N, Pituuspiiri: 166-02W, korkeus merenpinnasta: 139 m

Tämänhetkinen sää

Tämä raportti tehtiin 1 tunti ja 50 minuuttia sitten, kello 19.55 UTC
Tuuli 12 kn pohjoisesta
Lämpötila 6°C
Kosteus 87%
Ilmanpaine 1014 hPa
Näkyvyys: 16.1 km
Muutamia pilviä 1000 ft:n korkeudessa

METAR: PACZ 171955Z 01012KT 10SM FEW010 06/04 A2994 RMK AO2A SLP142

Aika: 13:45 (21:45 UTC)


TAF: puuttuu

Säähavainnot ja -ennusteet yli 4000 lentoasemalta (METAR- ja TAF-raportit).

Käytössä olevat sääasemat on merkitty karttaan keltaisilla ja punaisilla pisteillä.

Aseta hiiri pisteen päälle nähdäksesi sääaseman nimen.

Klikkaa sitten nähdäksesi säähavainnot ja -ennusteet.

Kartan vaihtaminen: klikkaa mustalla rastilla varustettuja vihreitä pisteitä, niin voit zoomata sisään; viivalla varustettua vihreää pistettä, niin voit zoomata ulos tai vihreitä nuolia, niin pääset viereisille kartoille.


METAR-TAF: